createdAt,value
2023-03-19T00:01:07.550Z,-3.76
2023-03-19T00:03:43.423Z,-3.81
2023-03-19T00:06:12.320Z,-3.87
2023-03-19T00:08:40.655Z,-3.94
2023-03-19T00:11:14.009Z,-4.03
2023-03-19T00:13:42.259Z,-4.11
2023-03-19T00:16:10.568Z,-4.19
2023-03-19T00:18:38.827Z,-4.27
2023-03-19T00:21:07.338Z,-4.29
2023-03-19T00:23:36.917Z,-4.30
2023-03-19T00:26:05.995Z,-4.27
2023-03-19T00:28:35.645Z,-4.23
2023-03-19T00:31:12.642Z,-4.17
2023-03-19T00:33:41.509Z,-4.13
2023-03-19T00:36:11.229Z,-4.10
2023-03-19T00:38:39.936Z,-4.10
2023-03-19T00:41:08.422Z,-4.12
2023-03-19T00:43:36.933Z,-4.15
2023-03-19T00:46:05.853Z,-4.21
2023-03-19T00:48:34.377Z,-4.28
2023-03-19T00:51:09.012Z,-4.32
2023-03-19T00:53:42.474Z,-4.39
2023-03-19T00:56:13.278Z,-4.43
2023-03-19T00:58:41.713Z,-4.45
2023-03-19T01:01:11.664Z,-4.45
2023-03-19T01:03:40.596Z,-4.40
2023-03-19T01:06:08.888Z,-4.34
2023-03-19T01:08:37.237Z,-4.31
2023-03-19T01:11:15.431Z,-4.28
2023-03-19T01:13:43.779Z,-4.26
2023-03-19T01:16:12.008Z,-4.27
2023-03-19T01:18:40.254Z,-4.32
2023-03-19T01:21:08.495Z,-4.41
2023-03-19T01:23:43.407Z,-4.49
2023-03-19T01:26:13.152Z,-4.55
2023-03-19T01:28:41.734Z,-4.61
2023-03-19T01:31:11.772Z,-4.69
2023-03-19T01:33:58.778Z,-4.77
2023-03-19T01:36:42.659Z,-4.81
2023-03-19T01:39:11.850Z,-4.81
2023-03-19T01:41:41.036Z,-4.78
2023-03-19T01:44:28.033Z,-4.74
2023-03-19T01:47:33.626Z,-4.68
2023-03-19T01:50:25.095Z,-4.62
2023-03-19T01:53:07.482Z,-4.59
2023-03-19T01:55:59.690Z,-4.55
2023-03-19T01:58:42.310Z,-4.56
2023-03-19T02:01:48.052Z,-4.63
2023-03-19T02:04:17.120Z,-4.68
2023-03-19T02:06:45.738Z,-4.76
2023-03-19T02:09:15.294Z,-4.83
2023-03-19T02:11:44.098Z,-4.89
2023-03-19T02:14:13.447Z,-4.96
2023-03-19T02:16:41.780Z,-5.02
2023-03-19T02:19:16.317Z,-5.03
2023-03-19T02:21:44.671Z,-5.03
2023-03-19T02:24:20.390Z,-4.98
2023-03-19T02:27:00.583Z,-4.89
2023-03-19T02:29:29.395Z,-4.85
2023-03-19T02:31:59.891Z,-4.84
2023-03-19T02:34:28.870Z,-4.84
2023-03-19T02:37:13.168Z,-4.86
2023-03-19T02:39:54.423Z,-4.91
2023-03-19T02:42:27.072Z,-4.99
2023-03-19T02:44:55.718Z,-5.05
2023-03-19T02:47:25.555Z,-5.12
2023-03-19T02:49:54.357Z,-5.18
2023-03-19T02:52:22.710Z,-5.24
2023-03-19T02:54:50.951Z,-5.29
2023-03-19T02:57:19.547Z,-5.29
2023-03-19T02:59:47.871Z,-5.27
2023-03-19T03:02:16.145Z,-5.25
2023-03-19T03:04:45.792Z,-5.19
2023-03-19T03:07:14.087Z,-5.13
2023-03-19T03:09:42.332Z,-5.09
2023-03-19T03:12:12.348Z,-5.10
2023-03-19T03:14:41.330Z,-5.08
2023-03-19T03:17:09.712Z,-5.09
2023-03-19T03:19:37.967Z,-5.12
2023-03-19T03:22:06.547Z,-5.12
2023-03-19T03:24:34.889Z,-5.13
2023-03-19T03:27:03.086Z,-5.17
2023-03-19T03:29:31.459Z,-5.23
2023-03-19T03:31:59.726Z,-5.26
2023-03-19T03:34:28.432Z,-5.29
2023-03-19T03:36:58.016Z,-5.30
2023-03-19T03:39:26.812Z,-5.29
2023-03-19T03:41:55.060Z,-5.24
2023-03-19T03:44:23.824Z,-5.20
2023-03-19T03:46:52.118Z,-5.18
2023-03-19T03:49:21.122Z,-5.19
2023-03-19T03:51:49.712Z,-5.18
2023-03-19T03:54:18.161Z,-5.22
2023-03-19T03:56:46.507Z,-5.29
2023-03-19T03:59:14.854Z,-5.36
2023-03-19T04:01:43.344Z,-5.41
2023-03-19T04:04:11.808Z,-5.48
2023-03-19T04:06:40.141Z,-5.54
2023-03-19T04:09:26.499Z,-5.61
2023-03-19T04:11:55.291Z,-5.66
2023-03-19T04:14:23.686Z,-5.67
2023-03-19T04:16:52.374Z,-5.65
2023-03-19T04:19:20.724Z,-5.60
2023-03-19T04:21:49.074Z,-5.55
2023-03-19T04:24:17.532Z,-5.49
2023-03-19T04:26:48.626Z,-5.45
2023-03-19T04:29:18.771Z,-5.38
2023-03-19T04:31:47.769Z,-5.37
2023-03-19T04:34:16.015Z,-5.39
2023-03-19T04:36:44.289Z,-5.43
2023-03-19T04:39:12.904Z,-5.48
2023-03-19T04:41:41.254Z,-5.52
2023-03-19T04:44:25.008Z,-5.57
2023-03-19T04:46:53.596Z,-5.59
2023-03-19T04:49:22.141Z,-5.62
2023-03-19T04:51:52.372Z,-5.62
2023-03-19T04:54:21.034Z,-5.60
2023-03-19T04:56:49.287Z,-5.57
2023-03-19T04:59:18.457Z,-5.53
2023-03-19T05:01:47.242Z,-5.47
2023-03-19T05:04:20.768Z,-5.39
2023-03-19T05:06:50.434Z,-5.31
2023-03-19T05:09:19.945Z,-5.24
2023-03-19T05:11:48.327Z,-5.21
2023-03-19T05:14:19.906Z,-5.15
2023-03-19T05:17:08.860Z,-5.13
2023-03-19T05:19:46.887Z,-5.12
2023-03-19T05:22:15.246Z,-5.10
2023-03-19T05:24:43.560Z,-5.10
2023-03-19T05:27:12.633Z,-5.09
2023-03-19T05:30:01.699Z,-5.02
2023-03-19T05:32:48.649Z,-4.93
2023-03-19T05:35:29.487Z,-4.81
2023-03-19T05:37:58.014Z,-4.69
2023-03-19T05:40:26.737Z,-4.53
2023-03-19T05:42:55.434Z,-4.38
2023-03-19T05:45:25.845Z,-4.12
2023-03-19T05:47:57.087Z,-3.19
2023-03-19T05:50:26.085Z,-1.86
2023-03-19T05:53:29.697Z,-0.24
2023-03-19T05:56:30.392Z,1.14
2023-03-19T05:59:11.113Z,2.23
2023-03-19T06:01:41.233Z,3.24
2023-03-19T06:04:09.713Z,4.17
2023-03-19T06:06:38.407Z,5.07
2023-03-19T06:09:06.822Z,5.95
2023-03-19T06:11:40.608Z,6.87
2023-03-19T06:14:29.132Z,7.72
2023-03-19T06:17:16.161Z,8.41
2023-03-19T06:19:44.511Z,8.87
2023-03-19T06:22:12.841Z,9.15
2023-03-19T06:24:41.365Z,9.58
2023-03-19T06:27:10.036Z,10.23
2023-03-19T06:29:38.906Z,10.47
2023-03-19T06:32:23.577Z,10.97
2023-03-19T06:34:53.430Z,11.37
2023-03-19T06:37:22.124Z,11.43
2023-03-19T06:39:51.255Z,11.64
2023-03-19T06:42:19.548Z,10.88
2023-03-19T06:44:48.584Z,11.10
2023-03-19T06:47:16.800Z,11.62
2023-03-19T06:49:45.714Z,11.91
2023-03-19T06:52:13.965Z,12.43
2023-03-19T06:54:42.211Z,12.86
2023-03-19T06:57:10.433Z,12.89
2023-03-19T06:59:38.698Z,13.21
2023-03-19T07:02:09.009Z,13.47
2023-03-19T07:04:38.247Z,13.74
2023-03-19T07:07:07.420Z,13.98
2023-03-19T07:09:35.613Z,13.79
2023-03-19T07:12:04.147Z,14.17
2023-03-19T07:14:32.334Z,14.26
2023-03-19T07:17:00.676Z,14.42
2023-03-19T07:19:29.056Z,14.58
2023-03-19T07:21:57.258Z,14.59
2023-03-19T07:24:25.762Z,14.91
2023-03-19T07:26:53.988Z,15.41
2023-03-19T07:29:22.301Z,15.79
2023-03-19T07:31:50.622Z,15.57
2023-03-19T07:34:19.044Z,15.68
2023-03-19T07:36:47.561Z,15.15
2023-03-19T07:39:16.102Z,15.45
2023-03-19T07:41:45.047Z,15.70
2023-03-19T07:44:16.659Z,16.71
2023-03-19T07:46:44.960Z,17.20
2023-03-19T07:49:13.220Z,17.10
2023-03-19T07:51:41.610Z,17.23
2023-03-19T07:54:09.865Z,16.79
2023-03-19T07:56:38.454Z,17.04
2023-03-19T07:59:07.005Z,16.74
2023-03-19T08:01:35.654Z,17.02
2023-03-19T08:04:04.312Z,17.79
2023-03-19T08:06:32.914Z,17.75
2023-03-19T08:09:01.432Z,17.57
2023-03-19T08:11:30.146Z,17.78
2023-03-19T08:13:58.365Z,17.58
2023-03-19T08:16:27.164Z,17.69
2023-03-19T08:18:55.502Z,17.75
2023-03-19T08:21:23.950Z,17.92
2023-03-19T08:23:53.484Z,17.96
2023-03-19T08:26:21.653Z,18.38
2023-03-19T08:28:49.837Z,18.62
2023-03-19T08:31:18.156Z,18.93
2023-03-19T08:33:46.460Z,19.10
2023-03-19T08:36:15.076Z,19.02
2023-03-19T08:38:44.803Z,19.05
2023-03-19T08:41:13.414Z,19.13
2023-03-19T08:43:41.511Z,19.29
2023-03-19T08:46:09.735Z,19.39
2023-03-19T08:48:40.942Z,19.98
2023-03-19T08:51:10.353Z,19.70
2023-03-19T08:53:40.104Z,19.97
2023-03-19T08:56:08.805Z,20.68
2023-03-19T08:58:37.052Z,20.41
2023-03-19T09:01:10.813Z,19.96
2023-03-19T09:03:40.314Z,20.89
2023-03-19T09:06:11.315Z,21.26
2023-03-19T09:08:39.429Z,21.97
2023-03-19T09:11:07.822Z,22.39
2023-03-19T09:13:36.050Z,22.33
2023-03-19T09:16:04.709Z,22.98
2023-03-19T09:18:34.208Z,23.34
2023-03-19T09:21:02.550Z,23.73
2023-03-19T09:23:30.874Z,23.72
2023-03-19T09:25:59.076Z,23.49
2023-03-19T09:28:27.390Z,23.37
2023-03-19T09:30:56.146Z,23.90
2023-03-19T09:33:24.329Z,24.06
2023-03-19T09:35:53.855Z,24.37
2023-03-19T09:38:22.403Z,22.86
2023-03-19T09:41:07.179Z,23.03
2023-03-19T09:43:47.485Z,23.96
2023-03-19T09:46:28.314Z,23.92
2023-03-19T09:49:04.704Z,23.42
2023-03-19T09:51:47.005Z,23.50
2023-03-19T09:54:32.530Z,23.40
2023-03-19T09:57:01.410Z,23.29
2023-03-19T09:59:30.097Z,23.34
2023-03-19T10:02:17.280Z,23.19
2023-03-19T10:05:00.736Z,23.54
2023-03-19T10:07:55.397Z,23.01
2023-03-19T10:10:42.203Z,23.53
2023-03-19T10:13:51.463Z,23.31
2023-03-19T10:16:24.134Z,23.20
2023-03-19T10:18:55.987Z,22.98
2023-03-19T10:21:50.788Z,22.65
2023-03-19T10:24:31.503Z,22.67
2023-03-19T10:27:03.178Z,23.04
2023-03-19T10:29:31.879Z,22.90
2023-03-19T10:32:11.760Z,23.01
2023-03-19T10:34:44.868Z,23.13
2023-03-19T10:37:13.039Z,23.05
2023-03-19T10:39:45.021Z,23.17
2023-03-19T10:42:41.536Z,23.55
2023-03-19T10:45:28.840Z,23.94
2023-03-19T10:47:58.440Z,23.93
2023-03-19T10:50:29.446Z,23.76
2023-03-19T10:53:29.409Z,23.48
2023-03-19T10:56:03.869Z,22.67
2023-03-19T10:58:37.077Z,22.11
2023-03-19T11:01:12.197Z,21.89
2023-03-19T11:04:01.909Z,21.55
2023-03-19T11:06:36.011Z,21.39
2023-03-19T11:09:10.877Z,21.21
2023-03-19T11:11:51.202Z,21.26
2023-03-19T11:14:34.782Z,21.18
2023-03-19T11:17:26.166Z,20.53
2023-03-19T11:19:57.762Z,20.24
2023-03-19T11:22:36.838Z,20.13
2023-03-19T11:25:15.741Z,19.91
2023-03-19T11:27:43.903Z,19.25
2023-03-19T11:30:21.634Z,19.24
2023-03-19T11:33:30.579Z,18.99
2023-03-19T11:36:20.607Z,18.45
2023-03-19T11:39:15.771Z,18.44
2023-03-19T11:42:16.046Z,18.40
2023-03-19T11:45:21.598Z,18.23
2023-03-19T11:48:28.923Z,17.72
2023-03-19T11:51:28.402Z,17.67
2023-03-19T11:54:05.750Z,17.51
2023-03-19T11:56:56.025Z,17.37
2023-03-19T11:59:27.342Z,17.23
2023-03-19T12:02:17.623Z,17.03
2023-03-19T12:05:13.756Z,16.86
2023-03-19T12:07:44.718Z,16.73
2023-03-19T12:10:44.021Z,16.67
2023-03-19T12:13:26.102Z,16.51
2023-03-19T12:16:13.876Z,16.33
2023-03-19T12:18:47.953Z,16.29
2023-03-19T12:21:16.692Z,16.30
2023-03-19T12:24:15.898Z,16.30
2023-03-19T12:26:47.160Z,16.33
2023-03-19T12:29:24.421Z,16.26
2023-03-19T12:31:55.889Z,16.08
2023-03-19T12:34:34.388Z,16.19
2023-03-19T12:37:27.363Z,16.20
2023-03-19T12:40:15.173Z,16.17
2023-03-19T12:42:43.760Z,16.13
2023-03-19T12:45:38.944Z,15.98
2023-03-19T12:48:19.245Z,15.99
2023-03-19T12:50:51.769Z,15.96
2023-03-19T12:53:40.584Z,15.75
2023-03-19T12:56:33.065Z,15.74
2023-03-19T12:59:05.609Z,15.75
2023-03-19T13:01:39.543Z,15.75
2023-03-19T13:04:47.067Z,15.73
2023-03-19T13:07:32.364Z,15.68
2023-03-19T13:10:11.026Z,15.70
2023-03-19T13:12:39.960Z,15.61
2023-03-19T13:15:14.784Z,15.39
2023-03-19T13:18:05.038Z,15.28
2023-03-19T13:21:03.534Z,15.29
2023-03-19T13:23:36.313Z,15.28
2023-03-19T13:26:08.079Z,15.28
2023-03-19T13:28:38.685Z,15.31
2023-03-19T13:31:08.585Z,15.22
2023-03-19T13:33:40.874Z,15.15
2023-03-19T13:36:15.217Z,15.16
2023-03-19T13:38:50.841Z,15.17
2023-03-19T13:41:39.994Z,15.15
2023-03-19T13:44:48.109Z,15.16
2023-03-19T13:47:36.662Z,15.20
2023-03-19T13:50:24.616Z,15.22
2023-03-19T13:52:53.680Z,15.16
2023-03-19T13:55:24.720Z,15.14
2023-03-19T13:58:12.552Z,15.13
2023-03-19T14:00:43.578Z,15.07
2023-03-19T14:03:32.070Z,15.02
2023-03-19T14:06:01.953Z,14.96
2023-03-19T14:08:42.910Z,14.91
2023-03-19T14:11:12.769Z,14.77
2023-03-19T14:13:43.586Z,14.73
2023-03-19T14:16:24.125Z,14.66
2023-03-19T14:18:57.369Z,14.61
2023-03-19T14:21:51.675Z,14.61
2023-03-19T14:24:56.179Z,14.57
2023-03-19T14:27:33.342Z,14.60
2023-03-19T14:30:21.254Z,14.61
2023-03-19T14:32:51.565Z,14.57
2023-03-19T14:35:20.800Z,14.55
2023-03-19T14:37:51.465Z,14.53
2023-03-19T14:40:44.820Z,14.51
2023-03-19T14:43:50.715Z,14.50
2023-03-19T14:46:30.988Z,14.49
2023-03-19T14:49:43.484Z,14.44
2023-03-19T14:52:14.446Z,14.36
2023-03-19T14:55:13.483Z,14.28
2023-03-19T14:57:41.793Z,14.20
2023-03-19T15:00:19.413Z,14.16
2023-03-19T15:02:53.060Z,14.12
2023-03-19T15:05:24.544Z,14.04
2023-03-19T15:08:14.065Z,13.98
2023-03-19T15:11:14.397Z,13.87
2023-03-19T15:14:20.109Z,13.81
2023-03-19T15:17:09.660Z,13.68
2023-03-19T15:19:39.608Z,13.56
2023-03-19T15:22:16.118Z,13.46
2023-03-19T15:24:44.443Z,13.35
2023-03-19T15:27:22.175Z,13.24
2023-03-19T15:29:51.638Z,13.14
2023-03-19T15:33:10.609Z,13.04
2023-03-19T15:35:32.380Z,12.89
2023-03-19T15:38:07.594Z,12.76
2023-03-19T15:40:37.498Z,12.58
2023-03-19T15:43:06.277Z,12.51
2023-03-19T15:45:35.307Z,12.39
2023-03-19T15:48:06.609Z,12.26
2023-03-19T15:50:39.689Z,12.11
2023-03-19T15:53:16.374Z,11.95
2023-03-19T15:55:44.863Z,11.79
2023-03-19T15:58:22.203Z,11.62
2023-03-19T16:00:54.075Z,11.43
2023-03-19T16:03:49.529Z,11.25
2023-03-19T16:06:21.765Z,11.04
2023-03-19T16:08:55.748Z,10.84
2023-03-19T16:11:49.420Z,10.65
2023-03-19T16:14:26.724Z,10.42
2023-03-19T16:17:22.077Z,10.22
2023-03-19T16:19:50.533Z,10.03
2023-03-19T16:22:24.440Z,9.92
2023-03-19T16:24:54.016Z,9.74
2023-03-19T16:27:32.856Z,9.55
2023-03-19T16:30:01.889Z,9.33
2023-03-19T16:32:32.385Z,9.12
2023-03-19T16:35:04.046Z,8.94
2023-03-19T16:37:34.084Z,8.74
2023-03-19T16:40:23.801Z,8.54
2023-03-19T16:43:06.102Z,8.31
2023-03-19T16:45:35.441Z,8.11
2023-03-19T16:48:04.166Z,7.95
2023-03-19T16:50:40.399Z,7.78
2023-03-19T16:53:24.887Z,7.60
2023-03-19T16:55:55.634Z,7.44
2023-03-19T16:58:35.088Z,7.30
2023-03-19T17:01:23.264Z,7.14
2023-03-19T17:03:52.590Z,6.95
2023-03-19T17:06:21.890Z,6.79
2023-03-19T17:08:50.159Z,6.63
2023-03-19T17:11:38.846Z,6.48
2023-03-19T17:14:13.304Z,6.31
2023-03-19T17:16:47.064Z,6.16
2023-03-19T17:19:19.647Z,6.05
2023-03-19T17:21:51.078Z,5.95
2023-03-19T17:24:28.419Z,5.85
2023-03-19T17:26:59.529Z,5.76
2023-03-19T17:29:28.853Z,5.67
2023-03-19T17:32:00.359Z,5.56
2023-03-19T17:34:33.662Z,5.46
2023-03-19T17:37:10.914Z,5.33
2023-03-19T17:39:39.502Z,5.19
2023-03-19T17:42:24.919Z,5.07
2023-03-19T17:44:53.258Z,4.94
2023-03-19T17:47:22.070Z,4.82
2023-03-19T17:49:50.449Z,4.72
2023-03-19T17:52:19.521Z,4.64
2023-03-19T17:54:47.799Z,4.56
2023-03-19T17:57:16.396Z,4.47
2023-03-19T17:59:44.527Z,4.37
2023-03-19T18:02:25.927Z,4.25
2023-03-19T18:04:54.307Z,4.11
2023-03-19T18:07:22.502Z,4.00
2023-03-19T18:09:50.779Z,3.88
2023-03-19T18:12:19.068Z,3.78
2023-03-19T18:14:47.362Z,3.68
2023-03-19T18:17:17.205Z,3.59
2023-03-19T18:19:47.634Z,3.48
2023-03-19T18:22:17.945Z,3.36
2023-03-19T18:24:46.263Z,3.25
2023-03-19T18:27:14.849Z,3.15
2023-03-19T18:29:43.068Z,3.06
2023-03-19T18:32:16.220Z,2.96
2023-03-19T18:34:44.539Z,2.87
2023-03-19T18:37:17.510Z,2.80
2023-03-19T18:39:46.030Z,2.78
2023-03-19T18:42:14.681Z,2.72
2023-03-19T18:44:43.098Z,2.63
2023-03-19T18:47:16.002Z,2.52
2023-03-19T18:49:44.956Z,2.40
2023-03-19T18:52:16.545Z,2.28
2023-03-19T18:54:47.780Z,2.20
2023-03-19T18:57:17.247Z,2.11
2023-03-19T18:59:45.986Z,2.01
2023-03-19T19:02:33.912Z,1.94
2023-03-19T19:05:03.258Z,1.85
2023-03-19T19:07:31.455Z,1.76
2023-03-19T19:09:59.704Z,1.69
2023-03-19T19:12:27.956Z,1.64
2023-03-19T19:14:58.911Z,1.56
2023-03-19T19:17:29.725Z,1.50
2023-03-19T19:19:57.936Z,1.43
2023-03-19T19:22:26.340Z,1.35
2023-03-19T19:24:54.551Z,1.31
2023-03-19T19:27:26.251Z,1.24
2023-03-19T19:29:54.912Z,1.17
2023-03-19T19:32:27.345Z,1.10
2023-03-19T19:34:55.863Z,1.02
2023-03-19T19:37:24.438Z,0.97
2023-03-19T19:39:53.317Z,0.93
2023-03-19T19:42:22.906Z,0.87
2023-03-19T19:44:55.059Z,0.83
2023-03-19T19:47:23.381Z,0.81
2023-03-19T19:49:51.973Z,0.82
2023-03-19T19:52:20.421Z,0.85
2023-03-19T19:54:49.143Z,0.89
2023-03-19T19:57:18.985Z,0.92
2023-03-19T19:59:47.688Z,0.93
2023-03-19T20:02:20.632Z,0.93
2023-03-19T20:04:48.853Z,0.89
2023-03-19T20:07:17.169Z,0.83
2023-03-19T20:09:45.521Z,0.78
2023-03-19T20:12:26.909Z,0.72
2023-03-19T20:14:55.468Z,0.68
2023-03-19T20:17:23.915Z,0.63
2023-03-19T20:19:52.367Z,0.58
2023-03-19T20:22:20.679Z,0.51
2023-03-19T20:24:51.272Z,0.41
2023-03-19T20:27:23.407Z,0.31
2023-03-19T20:29:53.852Z,0.22
2023-03-19T20:32:34.863Z,0.14
2023-03-19T20:35:07.276Z,0.08
2023-03-19T20:37:35.839Z,0.07
2023-03-19T20:40:04.343Z,0.05
2023-03-19T20:42:33.504Z,-0.01
2023-03-19T20:45:02.483Z,-0.08
2023-03-19T20:47:33.120Z,-0.16
2023-03-19T20:50:02.170Z,-0.18
2023-03-19T20:52:30.491Z,-0.17
2023-03-19T20:54:58.955Z,-0.17
2023-03-19T20:57:31.308Z,-0.13
2023-03-19T21:00:07.121Z,-0.08
2023-03-19T21:02:35.432Z,-0.04
2023-03-19T21:05:07.872Z,0.00
2023-03-19T21:07:36.286Z,0.04
2023-03-19T21:10:20.168Z,0.06
2023-03-19T21:12:48.431Z,0.03
2023-03-19T21:15:17.648Z,-0.06
2023-03-19T21:17:46.717Z,-0.14
2023-03-19T21:20:21.776Z,-0.21
2023-03-19T21:23:03.958Z,-0.29
2023-03-19T21:25:33.768Z,-0.36
2023-03-19T21:28:06.767Z,-0.45
2023-03-19T21:30:40.762Z,-0.53
2023-03-19T21:33:22.290Z,-0.60
2023-03-19T21:35:51.672Z,-0.65
2023-03-19T21:38:20.433Z,-0.71
2023-03-19T21:40:50.851Z,-0.76
2023-03-19T21:43:23.806Z,-0.77
2023-03-19T21:45:52.653Z,-0.72
2023-03-19T21:48:26.908Z,-0.68
2023-03-19T21:50:55.608Z,-0.66
2023-03-19T21:53:24.888Z,-0.63
2023-03-19T21:55:54.547Z,-0.62
2023-03-19T21:58:31.731Z,-0.66
2023-03-19T22:01:01.298Z,-0.64
2023-03-19T22:03:30.114Z,-0.66
2023-03-19T22:05:58.386Z,-0.71
2023-03-19T22:08:27.374Z,-0.77
2023-03-19T22:10:58.695Z,-0.81
2023-03-19T22:13:34.319Z,-0.88
2023-03-19T22:16:02.602Z,-0.96
2023-03-19T22:18:32.299Z,-1.03
2023-03-19T22:21:00.506Z,-1.09
2023-03-19T22:23:28.802Z,-1.14
2023-03-19T22:25:57.103Z,-1.21
2023-03-19T22:28:32.612Z,-1.25
2023-03-19T22:31:03.811Z,-1.27
2023-03-19T22:33:32.369Z,-1.27
2023-03-19T22:36:00.739Z,-1.26
2023-03-19T22:38:29.058Z,-1.24
2023-03-19T22:40:57.727Z,-1.22
2023-03-19T22:43:35.070Z,-1.22
2023-03-19T22:46:15.478Z,-1.25
2023-03-19T22:48:50.736Z,-1.29
2023-03-19T22:51:23.914Z,-1.31
2023-03-19T22:53:52.676Z,-1.34
2023-03-19T22:56:21.972Z,-1.39
2023-03-19T22:58:50.994Z,-1.46
2023-03-19T23:01:22.597Z,-1.53
2023-03-19T23:03:51.775Z,-1.58
2023-03-19T23:06:30.335Z,-1.66
2023-03-19T23:08:59.653Z,-1.73
2023-03-19T23:11:27.872Z,-1.75
2023-03-19T23:13:56.781Z,-1.72
2023-03-19T23:16:25.545Z,-1.69
2023-03-19T23:21:23.657Z,-1.63
2023-03-19T23:23:52.462Z,-1.58
2023-03-19T23:26:25.946Z,-1.57
2023-03-19T23:28:56.594Z,-1.59
2023-03-19T23:31:24.754Z,-1.62
2023-03-19T23:33:53.356Z,-1.66
2023-03-19T23:36:22.008Z,-1.68
2023-03-19T23:38:51.638Z,-1.71
2023-03-19T23:41:26.102Z,-1.75
2023-03-19T23:43:54.971Z,-1.81
2023-03-19T23:46:23.330Z,-1.87
2023-03-19T23:48:51.825Z,-1.93
2023-03-19T23:51:20.051Z,-1.94
2023-03-19T23:53:48.566Z,-1.92
2023-03-19T23:56:22.878Z,-1.89
2023-03-19T23:58:53.694Z,-1.85
